sensor_id;sensor_type;location;lat;lon;timestamp;pressure;altitude;pressure_sealevel;temperature;humidity
43838;BME280;65998;46.256;7.534;2023-04-28T00:01:41;87032.84;;;15.56;45.55
43838;BME280;65998;46.256;7.534;2023-04-28T00:04:07;87021.75;;;15.56;45.50
43838;BME280;65998;46.256;7.534;2023-04-28T00:06:33;87026.63;;;15.55;45.72
43838;BME280;65998;46.256;7.534;2023-04-28T00:08:59;87026.63;;;15.55;45.57
43838;BME280;65998;46.256;7.534;2023-04-28T00:11:25;87023.84;;;15.55;45.69
43838;BME280;65998;46.256;7.534;2023-04-28T00:13:51;87016.94;;;15.54;45.64
43838;BME280;65998;46.256;7.534;2023-04-28T00:16:16;87018.31;;;15.55;45.54
43838;BME280;65998;46.256;7.534;2023-04-28T00:18:42;87016.94;;;15.54;45.58
43838;BME280;65998;46.256;7.534;2023-04-28T00:21:08;87024.56;;;15.54;45.45
43838;BME280;65998;46.256;7.534;2023-04-28T00:23:34;87015.59;;;15.53;45.40
43838;BME280;65998;46.256;7.534;2023-04-28T00:26:00;87012.16;;;15.53;45.69
43838;BME280;65998;46.256;7.534;2023-04-28T00:28:26;87010.72;;;15.54;45.48
43838;BME280;65998;46.256;7.534;2023-04-28T00:30:51;87010.72;;;15.54;45.58
43838;BME280;65998;46.256;7.534;2023-04-28T00:33:17;87006.59;;;15.53;45.40
43838;BME280;65998;46.256;7.534;2023-04-28T00:35:43;87011.47;;;15.52;45.47
43838;BME280;65998;46.256;7.534;2023-04-28T00:38:09;87008.69;;;15.52;45.48
43838;BME280;65998;46.256;7.534;2023-04-28T00:40:39;87005.81;;;15.56;45.46
43838;BME280;65998;46.256;7.534;2023-04-28T00:43:05;87009.44;;;15.51;45.52
43838;BME280;65998;46.256;7.534;2023-04-28T00:45:31;87013.56;;;15.52;45.48
43838;BME280;65998;46.256;7.534;2023-04-28T00:47:58;87008.63;;;15.54;45.44
43838;BME280;65998;46.256;7.534;2023-04-28T00:50:25;87012.88;;;15.51;45.41
43838;BME280;65998;46.256;7.534;2023-04-28T00:52:51;87010.09;;;15.51;45.46
43838;BME280;65998;46.256;7.534;2023-04-28T00:55:18;87005.97;;;15.50;45.61
43838;BME280;65998;46.256;7.534;2023-04-28T00:57:44;87005.97;;;15.50;45.50
43838;BME280;65998;46.256;7.534;2023-04-28T01:00:10;87005.31;;;15.50;45.43
43838;BME280;65998;46.256;7.534;2023-04-28T01:02:36;86999.16;;;15.47;45.34
43838;BME280;65998;46.256;7.534;2023-04-28T01:05:02;87001.19;;;15.49;45.50
43838;BME280;65998;46.256;7.534;2023-04-28T01:07:28;87006.72;;;15.49;45.36
43838;BME280;65998;46.256;7.534;2023-04-28T01:09:55;87008.06;;;15.50;45.35
43838;BME280;65998;46.256;7.534;2023-04-28T01:12:21;87015.75;;;15.47;45.42
43838;BME280;65998;46.256;7.534;2023-04-28T01:14:48;87014.34;;;15.48;45.41
43838;BME280;65998;46.256;7.534;2023-04-28T01:17:14;87008.88;;;15.46;45.50
43838;BME280;65998;46.256;7.534;2023-04-28T01:19:40;87010.94;;;15.46;45.32
43838;BME280;65998;46.256;7.534;2023-04-28T01:22:05;87008.91;;;15.44;45.42
43838;BME280;65998;46.256;7.534;2023-04-28T01:24:31;87017.91;;;15.45;45.49
43838;BME280;65998;46.256;7.534;2023-04-28T01:26:57;87008.25;;;15.44;45.40
43838;BME280;65998;46.256;7.534;2023-04-28T01:29:23;87008.25;;;15.44;45.30
43838;BME280;65998;46.256;7.534;2023-04-28T01:31:49;87015.88;;;15.43;45.29
43838;BME280;65998;46.256;7.534;2023-04-28T01:34:15;87015.88;;;15.43;45.32
43838;BME280;65998;46.256;7.534;2023-04-28T01:36:40;87008.28;;;15.42;45.45
43838;BME280;65998;46.256;7.534;2023-04-28T01:39:06;87013.09;;;15.43;45.33
43838;BME280;65998;46.256;7.534;2023-04-28T01:41:32;87004.13;;;15.43;45.46
43838;BME280;65998;46.256;7.534;2023-04-28T01:43:58;87017.28;;;15.42;45.25
43838;BME280;65998;46.256;7.534;2023-04-28T01:46:24;87017.97;;;15.43;45.46
43838;BME280;65998;46.256;7.534;2023-04-28T01:48:50;87006.22;;;15.42;45.29
43838;BME280;65998;46.256;7.534;2023-04-28T01:51:15;87009.66;;;15.43;45.33
43838;BME280;65998;46.256;7.534;2023-04-28T01:53:41;87005.53;;;15.42;45.25
43838;BME280;65998;46.256;7.534;2023-04-28T01:56:07;87005.53;;;15.42;45.41
43838;BME280;65998;46.256;7.534;2023-04-28T01:58:33;86997.28;;;15.40;45.36
43838;BME280;65998;46.256;7.534;2023-04-28T02:00:58;87005.59;;;15.40;45.28
43838;BME280;65998;46.256;7.534;2023-04-28T02:03:24;86997.94;;;15.40;45.38
43838;BME280;65998;46.256;7.534;2023-04-28T02:05:50;87000.72;;;15.40;45.45
43838;BME280;65998;46.256;7.534;2023-04-28T02:08:16;86996.59;;;15.39;45.35
43838;BME280;65998;46.256;7.534;2023-04-28T02:10:42;86991.00;;;15.41;45.27
43838;BME280;65998;46.256;7.534;2023-04-28T02:13:08;86986.25;;;15.38;45.33
43838;BME280;65998;46.256;7.534;2023-04-28T02:15:39;86984.00;;;15.44;45.24
43838;BME280;65998;46.256;7.534;2023-04-28T02:18:05;86988.34;;;15.37;45.14
43838;BME280;65998;46.256;7.534;2023-04-28T02:20:30;86993.88;;;15.37;45.34
43838;BME280;65998;46.256;7.534;2023-04-28T02:22:56;86977.31;;;15.35;45.31
43838;BME280;65998;46.256;7.534;2023-04-28T02:25:22;86986.94;;;15.38;45.18
43838;BME280;65998;46.256;7.534;2023-04-28T02:27:48;86984.16;;;15.38;45.19
43838;BME280;65998;46.256;7.534;2023-04-28T02:30:13;86987.66;;;15.37;45.21
43838;BME280;65998;46.256;7.534;2023-04-28T02:32:39;86986.31;;;15.36;45.19
43838;BME280;65998;46.256;7.534;2023-04-28T02:35:05;86984.22;;;15.36;45.28
43838;BME280;65998;46.256;7.534;2023-04-28T02:37:32;86984.22;;;15.36;45.20
43838;BME280;65998;46.256;7.534;2023-04-28T02:39:57;86982.88;;;15.35;45.29
43838;BME280;65998;46.256;7.534;2023-04-28T02:42:23;86978.06;;;15.33;45.38
43838;BME280;65998;46.256;7.534;2023-04-28T02:44:49;86985.63;;;15.35;45.20
43838;BME280;65998;46.256;7.534;2023-04-28T02:47:15;86991.91;;;15.33;45.14
43838;BME280;65998;46.256;7.534;2023-04-28T02:49:41;86994.00;;;15.33;45.17
43838;BME280;65998;46.256;7.534;2023-04-28T02:52:07;86989.13;;;15.33;45.16
43838;BME280;65998;46.256;7.534;2023-04-28T02:54:32;86990.53;;;15.32;45.29
43838;BME280;65998;46.256;7.534;2023-04-28T02:56:58;86982.91;;;15.33;45.21
43838;BME280;65998;46.256;7.534;2023-04-28T02:59:24;86984.38;;;15.30;45.21
43838;BME280;65998;46.256;7.534;2023-04-28T03:01:50;86979.53;;;15.30;45.39
43838;BME280;65998;46.256;7.534;2023-04-28T03:04:16;86976.06;;;15.30;45.20
43838;BME280;65998;46.256;7.534;2023-04-28T03:06:42;86974.78;;;15.27;45.32
43838;BME280;65998;46.256;7.534;2023-04-28T03:09:08;86974.00;;;15.30;45.23
43838;BME280;65998;46.256;7.534;2023-04-28T03:11:35;86972.00;;;15.27;45.17
43838;BME280;65998;46.256;7.534;2023-04-28T03:14:00;86964.38;;;15.27;45.33
43838;BME280;65998;46.256;7.534;2023-04-28T03:16:26;86968.56;;;15.26;45.19
43838;BME280;65998;46.256;7.534;2023-04-28T03:18:52;86967.88;;;15.26;45.30
43838;BME280;65998;46.256;7.534;2023-04-28T03:21:18;86956.13;;;15.25;45.33
43838;BME280;65998;46.256;7.534;2023-04-28T03:23:44;86967.22;;;15.25;45.20
43838;BME280;65998;46.256;7.534;2023-04-28T03:26:10;86965.16;;;15.24;45.34
43838;BME280;65998;46.256;7.534;2023-04-28T03:28:35;86974.84;;;15.25;45.41
43838;BME280;65998;46.256;7.534;2023-04-28T03:31:01;86979.69;;;15.24;45.34
43838;BME280;65998;46.256;7.534;2023-04-28T03:33:27;86984.53;;;15.24;45.22
43838;BME280;65998;46.256;7.534;2023-04-28T03:35:53;86976.97;;;15.22;45.39
43838;BME280;65998;46.256;7.534;2023-04-28T03:38:19;86974.16;;;15.24;45.22
43838;BME280;65998;46.256;7.534;2023-04-28T03:40:45;86984.53;;;15.24;45.21
43838;BME280;65998;46.256;7.534;2023-04-28T03:43:11;86983.19;;;15.23;45.19
43838;BME280;65998;46.256;7.534;2023-04-28T03:45:37;86983.19;;;15.23;45.28
43838;BME280;65998;46.256;7.534;2023-04-28T03:48:03;86991.50;;;15.23;45.25
43838;BME280;65998;46.256;7.534;2023-04-28T03:50:29;86987.38;;;15.22;45.24
43838;BME280;65998;46.256;7.534;2023-04-28T03:52:55;86991.56;;;15.21;45.26
43838;BME280;65998;46.256;7.534;2023-04-28T03:55:21;86992.22;;;15.21;45.36
43838;BME280;65998;46.256;7.534;2023-04-28T03:57:47;86999.84;;;15.21;45.21
43838;BME280;65998;46.256;7.534;2023-04-28T04:00:13;86997.09;;;15.21;45.33
43838;BME280;65998;46.256;7.534;2023-04-28T04:02:38;86998.50;;;15.20;45.24
43838;BME280;65998;46.256;7.534;2023-04-28T04:05:04;87001.94;;;15.20;45.30
43838;BME280;65998;46.256;7.534;2023-04-28T04:07:30;86994.38;;;15.19;45.36
43838;BME280;65998;46.256;7.534;2023-04-28T04:09:56;86999.22;;;15.18;45.26
43838;BME280;65998;46.256;7.534;2023-04-28T04:12:22;87002.69;;;15.19;45.30
43838;BME280;65998;46.256;7.534;2023-04-28T04:14:48;87011.66;;;15.19;45.25
43838;BME280;65998;46.256;7.534;2023-04-28T04:17:13;87012.38;;;15.18;45.50
43838;BME280;65998;46.256;7.534;2023-04-28T04:19:39;87024.13;;;15.18;45.27
43838;BME280;65998;46.256;7.534;2023-04-28T04:22:05;87020.00;;;15.17;45.29
43838;BME280;65998;46.256;7.534;2023-04-28T04:24:31;87015.22;;;15.16;45.17
43838;BME280;65998;46.256;7.534;2023-04-28T04:26:56;87013.78;;;15.17;45.27
43838;BME280;65998;46.256;7.534;2023-04-28T04:29:22;87020.06;;;15.15;45.34
43838;BME280;65998;46.256;7.534;2023-04-28T04:31:48;87013.84;;;15.15;45.47
43838;BME280;65998;46.256;7.534;2023-04-28T04:34:14;87016.00;;;15.12;45.29
43838;BME280;65998;46.256;7.534;2023-04-28T04:36:39;87009.00;;;15.15;45.41
43838;BME280;65998;46.256;7.534;2023-04-28T04:39:05;87016.63;;;15.15;45.36
43838;BME280;65998;46.256;7.534;2023-04-28T04:41:31;87015.94;;;15.14;45.23
43838;BME280;65998;46.256;7.534;2023-04-28T04:43:57;87022.84;;;15.15;45.28
43838;BME280;65998;46.256;7.534;2023-04-28T04:46:22;87024.25;;;15.14;45.29
43838;BME280;65998;46.256;7.534;2023-04-28T04:48:48;87034.63;;;15.14;45.19
43838;BME280;65998;46.256;7.534;2023-04-28T04:51:14;87035.31;;;15.14;45.23
43838;BME280;65998;46.256;7.534;2023-04-28T04:53:40;87038.81;;;15.13;45.43
43838;BME280;65998;46.256;7.534;2023-04-28T04:56:06;87043.00;;;15.12;45.28
43838;BME280;65998;46.256;7.534;2023-04-28T04:58:32;87040.91;;;15.12;45.27
43838;BME280;65998;46.256;7.534;2023-04-28T05:00:57;87035.38;;;15.12;45.28
43838;BME280;65998;46.256;7.534;2023-04-28T05:03:23;87031.91;;;15.12;45.48
43838;BME280;65998;46.256;7.534;2023-04-28T05:05:49;87015.31;;;15.12;45.36
43838;BME280;65998;46.256;7.534;2023-04-28T05:08:15;87002.94;;;15.09;45.37
43838;BME280;65998;46.256;7.534;2023-04-28T05:10:40;87004.97;;;15.10;45.43
43838;BME280;65998;46.256;7.534;2023-04-28T05:13:06;87016.03;;;15.10;45.45
43838;BME280;65998;46.256;7.534;2023-04-28T05:15:32;87022.94;;;15.11;45.32
43838;BME280;65998;46.256;7.534;2023-04-28T05:17:58;87023.72;;;15.08;45.30
43838;BME280;65998;46.256;7.534;2023-04-28T05:20:24;87011.97;;;15.07;45.30
43838;BME280;65998;46.256;7.534;2023-04-28T05:22:50;87021.59;;;15.10;45.37
43838;BME280;65998;46.256;7.534;2023-04-28T05:25:15;87026.50;;;15.08;45.39
43838;BME280;65998;46.256;7.534;2023-04-28T05:27:41;87026.50;;;15.08;45.16
43838;BME280;65998;46.256;7.534;2023-04-28T05:30:08;87014.69;;;15.09;45.43
43838;BME280;65998;46.256;7.534;2023-04-28T05:32:34;87012.66;;;15.08;45.48
43838;BME280;65998;46.256;7.534;2023-04-28T05:35:01;87016.09;;;15.08;45.38
43838;BME280;65998;46.256;7.534;2023-04-28T05:37:27;87027.91;;;15.07;45.43
43838;BME280;65998;46.256;7.534;2023-04-28T05:39:53;87027.84;;;15.09;45.37
43838;BME280;65998;46.256;7.534;2023-04-28T05:42:19;87028.63;;;15.05;45.28
43838;BME280;65998;46.256;7.534;2023-04-28T05:44:45;87022.38;;;15.07;45.39
43838;BME280;65998;46.256;7.534;2023-04-28T05:47:11;87025.19;;;15.05;45.40
43838;BME280;65998;46.256;7.534;2023-04-28T05:49:37;87029.31;;;15.06;45.35
43838;BME280;65998;46.256;7.534;2023-04-28T05:52:03;87026.53;;;15.06;45.25
43838;BME280;65998;46.256;7.534;2023-04-28T05:54:29;87032.06;;;15.06;45.46
43838;BME280;65998;46.256;7.534;2023-04-28T05:56:55;87026.59;;;15.04;45.47
43838;BME280;65998;46.256;7.534;2023-04-28T05:59:21;87030.03;;;15.04;45.31
43838;BME280;65998;46.256;7.534;2023-04-28T06:01:47;87024.59;;;15.00;45.38
43838;BME280;65998;46.256;7.534;2023-04-28T06:04:12;87019.66;;;15.05;45.40
43838;BME280;65998;46.256;7.534;2023-04-28T06:06:38;87025.91;;;15.03;45.33
43838;BME280;65998;46.256;7.534;2023-04-28T06:09:04;87025.22;;;15.02;45.38
43838;BME280;65998;46.256;7.534;2023-04-28T06:11:30;87030.78;;;15.02;45.38
43838;BME280;65998;46.256;7.534;2023-04-28T06:13:56;87036.97;;;15.03;45.29
43838;BME280;65998;46.256;7.534;2023-04-28T06:16:21;87034.22;;;15.03;45.47
43838;BME280;65998;46.256;7.534;2023-04-28T06:18:48;87031.44;;;15.03;45.48
43838;BME280;65998;46.256;7.534;2023-04-28T06:21:15;87027.28;;;15.04;45.44
43838;BME280;65998;46.256;7.534;2023-04-28T06:23:41;87028.06;;;15.00;45.36
43838;BME280;65998;46.256;7.534;2023-04-28T06:26:07;87029.41;;;15.01;45.37
43838;BME280;65998;46.256;7.534;2023-04-28T06:28:33;87025.34;;;14.98;45.46
43838;BME280;65998;46.256;7.534;2023-04-28T06:30:59;87031.56;;;14.99;45.42
43838;BME280;65998;46.256;7.534;2023-04-28T06:33:25;87023.97;;;14.97;45.37
43838;BME280;65998;46.256;7.534;2023-04-28T06:35:52;87035.00;;;14.99;45.43
43838;BME280;65998;46.256;7.534;2023-04-28T06:38:18;87036.41;;;14.98;45.44
43838;BME280;65998;46.256;7.534;2023-04-28T06:40:44;87034.38;;;14.97;45.36
43838;BME280;65998;46.256;7.534;2023-04-28T06:43:10;87034.38;;;14.97;45.40
43838;BME280;65998;46.256;7.534;2023-04-28T06:45:36;87040.59;;;14.97;45.52
43838;BME280;65998;46.256;7.534;2023-04-28T06:48:02;87044.75;;;14.96;45.40
43838;BME280;65998;46.256;7.534;2023-04-28T06:50:28;87045.47;;;14.95;45.28
43838;BME280;65998;46.256;7.534;2023-04-28T06:52:54;87037.19;;;14.95;45.41
43838;BME280;65998;46.256;7.534;2023-04-28T06:55:20;87043.41;;;14.95;45.42
43838;BME280;65998;46.256;7.534;2023-04-28T06:57:45;87044.81;;;14.94;45.46
43838;BME280;65998;46.256;7.534;2023-04-28T07:00:13;87053.06;;;14.96;45.49
43838;BME280;65998;46.256;7.534;2023-04-28T07:02:39;87044.81;;;14.94;45.47
43838;BME280;65998;46.256;7.534;2023-04-28T07:05:05;87053.06;;;14.96;45.44
43838;BME280;65998;46.256;7.534;2023-04-28T07:07:31;87044.13;;;14.94;45.41
43838;BME280;65998;46.256;7.534;2023-04-28T07:09:57;87036.56;;;14.92;45.49
43838;BME280;65998;46.256;7.534;2023-04-28T07:12:23;87037.19;;;14.95;45.46
43838;BME280;65998;46.256;7.534;2023-04-28T07:14:49;87037.88;;;14.95;45.47
43838;BME280;65998;46.256;7.534;2023-04-28T07:17:14;87041.34;;;14.94;45.36
43838;BME280;65998;46.256;7.534;2023-04-28T07:19:40;87033.06;;;14.94;45.48
43838;BME280;65998;46.256;7.534;2023-04-28T07:22:06;87045.47;;;14.95;45.40
43838;BME280;65998;46.256;7.534;2023-04-28T07:24:32;87042.78;;;14.93;45.58
43838;BME280;65998;46.256;7.534;2023-04-28T07:26:58;87044.81;;;14.94;45.40
43838;BME280;65998;46.256;7.534;2023-04-28T07:29:24;87041.41;;;14.92;45.45
43838;BME280;65998;46.256;7.534;2023-04-28T07:31:49;87042.72;;;14.95;45.48
43838;BME280;65998;46.256;7.534;2023-04-28T07:34:15;87046.91;;;14.94;45.59
43838;BME280;65998;46.256;7.534;2023-04-28T07:36:41;87042.03;;;14.94;45.51
43838;BME280;65998;46.256;7.534;2023-04-28T07:39:07;87048.97;;;14.93;45.44
43838;BME280;65998;46.256;7.534;2023-04-28T07:41:36;87044.72;;;14.98;45.39
43838;BME280;65998;46.256;7.534;2023-04-28T07:44:04;87045.44;;;14.97;45.39
43838;BME280;65998;46.256;7.534;2023-04-28T07:46:31;87051.69;;;14.95;45.44
43838;BME280;65998;46.256;7.534;2023-04-28T07:48:57;87032.34;;;14.95;45.45
43838;BME280;65998;46.256;7.534;2023-04-28T07:51:23;87035.16;;;14.93;45.32
43838;BME280;65998;46.256;7.534;2023-04-28T07:53:49;87034.41;;;14.95;45.45
43838;BME280;65998;46.256;7.534;2023-04-28T07:56:14;87035.16;;;14.93;45.36
43838;BME280;65998;46.256;7.534;2023-04-28T07:58:41;87031.69;;;14.93;45.49
43838;BME280;65998;46.256;7.534;2023-04-28T08:01:06;87031.66;;;14.95;45.37
43838;BME280;65998;46.256;7.534;2023-04-28T08:03:32;87038.59;;;14.94;45.50
43838;BME280;65998;46.256;7.534;2023-04-28T08:05:58;87038.59;;;14.94;45.46
43838;BME280;65998;46.256;7.534;2023-04-28T08:08:24;87037.19;;;14.95;45.52
43838;BME280;65998;46.256;7.534;2023-04-28T08:10:50;87042.72;;;14.95;45.37
43838;BME280;65998;46.256;7.534;2023-04-28T08:13:16;87046.91;;;14.94;45.47
43838;BME280;65998;46.256;7.534;2023-04-28T08:15:41;87048.31;;;14.93;45.33
43838;BME280;65998;46.256;7.534;2023-04-28T08:18:07;87042.78;;;14.93;45.36
43838;BME280;65998;46.256;7.534;2023-04-28T08:20:33;87048.31;;;14.93;45.46
43838;BME280;65998;46.256;7.534;2023-04-28T08:22:59;87063.50;;;14.94;45.46
43838;BME280;65998;46.256;7.534;2023-04-28T08:25:25;87056.59;;;14.93;45.47
43838;BME280;65998;46.256;7.534;2023-04-28T08:27:51;87050.34;;;14.94;45.36
43838;BME280;65998;46.256;7.534;2023-04-28T08:30:17;87048.97;;;14.93;45.41
43838;BME280;65998;46.256;7.534;2023-04-28T08:32:43;87055.94;;;14.92;45.46
43838;BME280;65998;46.256;7.534;2023-04-28T08:35:09;87048.31;;;14.93;45.21
43838;BME280;65998;46.256;7.534;2023-04-28T08:37:35;87046.22;;;14.93;45.32
43838;BME280;65998;46.256;7.534;2023-04-28T08:40:01;87046.91;;;14.94;45.41
43838;BME280;65998;46.256;7.534;2023-04-28T08:42:28;87052.38;;;14.96;45.44
43838;BME280;65998;46.256;7.534;2023-04-28T08:44:55;87049.63;;;14.96;45.47
43838;BME280;65998;46.256;7.534;2023-04-28T08:47:21;87048.31;;;14.93;45.33
43838;BME280;65998;46.256;7.534;2023-04-28T08:49:48;87051.06;;;14.93;45.43
43838;BME280;65998;46.256;7.534;2023-04-28T08:52:16;87050.25;;;14.98;45.35
43838;BME280;65998;46.256;7.534;2023-04-28T08:54:43;87055.81;;;14.96;45.40
43838;BME280;65998;46.256;7.534;2023-04-28T08:57:10;87044.75;;;14.96;45.34
43838;BME280;65998;46.256;7.534;2023-04-28T08:59:39;87045.38;;;14.99;45.25
43838;BME280;65998;46.256;7.534;2023-04-28T09:02:09;87050.91;;;14.99;45.42
43838;BME280;65998;46.256;7.534;2023-04-28T09:04:35;87044.81;;;14.94;45.36
43838;BME280;65998;46.256;7.534;2023-04-28T09:07:01;87042.78;;;14.93;45.68
43838;BME280;65998;46.256;7.534;2023-04-28T09:09:28;87045.44;;;14.97;45.15
43838;BME280;65998;46.256;7.534;2023-04-28T09:11:56;87049.56;;;14.98;45.40
43838;BME280;65998;46.256;7.534;2023-04-28T09:14:22;87044.06;;;14.96;45.37
43838;BME280;65998;46.256;7.534;2023-04-28T09:16:49;87055.09;;;14.98;45.44
43838;BME280;65998;46.256;7.534;2023-04-28T09:19:15;87048.25;;;14.95;45.45
43838;BME280;65998;46.256;7.534;2023-04-28T09:21:48;87056.34;;;15.03;45.35
43838;BME280;65998;46.256;7.534;2023-04-28T09:27:03;87060.53;;;15.02;45.37
43838;BME280;65998;46.256;7.534;2023-04-28T09:29:30;87061.31;;;14.98;45.35
43838;BME280;65998;46.256;7.534;2023-04-28T09:32:16;87050.13;;;15.02;45.26
43838;BME280;65998;46.256;7.534;2023-04-28T09:34:44;87044.03;;;14.98;45.40
43838;BME280;65998;46.256;7.534;2023-04-28T09:39:40;87042.66;;;14.97;45.66
43838;BME280;65998;46.256;7.534;2023-04-28T09:42:06;87046.78;;;14.98;45.44
43838;BME280;65998;46.256;7.534;2023-04-28T09:44:31;87039.22;;;14.96;45.37
43838;BME280;65998;46.256;7.534;2023-04-28T09:46:57;87046.78;;;14.98;45.34
43838;BME280;65998;46.256;7.534;2023-04-28T09:49:23;87042.66;;;14.97;45.47
43838;BME280;65998;46.256;7.534;2023-04-28T09:51:49;87037.81;;;14.97;45.39
43838;BME280;65998;46.256;7.534;2023-04-28T09:54:15;87046.69;;;15.02;45.46
43838;BME280;65998;46.256;7.534;2023-04-28T09:56:43;87045.97;;;15.04;45.46
43838;BME280;65998;46.256;7.534;2023-04-28T09:59:10;87038.44;;;15.00;45.32
43838;BME280;65998;46.256;7.534;2023-04-28T10:01:37;87030.09;;;15.02;45.43
43838;BME280;65998;46.256;7.534;2023-04-28T10:04:04;87039.75;;;15.03;45.38
43838;BME280;65998;46.256;7.534;2023-04-28T10:06:33;87030.00;;;15.06;45.37
43838;BME280;65998;46.256;7.534;2023-04-28T10:09:02;87029.34;;;15.04;45.29
43838;BME280;65998;46.256;7.534;2023-04-28T10:11:28;87030.09;;;15.02;45.37
43838;BME280;65998;46.256;7.534;2023-04-28T10:13:54;87022.47;;;15.02;45.33
43838;BME280;65998;46.256;7.534;2023-04-28T10:16:21;87024.50;;;15.04;45.38
43838;BME280;65998;46.256;7.534;2023-04-28T10:18:48;87012.03;;;15.05;45.32
43838;BME280;65998;46.256;7.534;2023-04-28T10:21:18;87011.25;;;15.09;45.29
43838;BME280;65998;46.256;7.534;2023-04-28T10:23:56;87006.34;;;15.11;45.21
43838;BME280;65998;46.256;7.534;2023-04-28T10:29:23;86998.03;;;15.11;45.06
43838;BME280;65998;46.256;7.534;2023-04-28T10:32:18;86995.22;;;15.13;45.21
43838;BME280;65998;46.256;7.534;2023-04-28T10:34:44;86991.91;;;15.07;45.41
43838;BME280;65998;46.256;7.534;2023-04-28T10:37:10;86991.91;;;15.07;45.63
43838;BME280;65998;46.256;7.534;2023-04-28T10:39:36;86988.44;;;15.08;45.45
43838;BME280;65998;46.256;7.534;2023-04-28T10:42:02;86989.16;;;15.07;45.37
43838;BME280;65998;46.256;7.534;2023-04-28T10:47:03;86991.72;;;15.15;45.43
43838;BME280;65998;46.256;7.534;2023-04-28T11:00:51;86989.50;;;15.19;45.42
43838;BME280;65998;46.256;7.534;2023-04-28T11:06:30;86998.34;;;15.26;45.39
43838;BME280;65998;46.256;7.534;2023-04-28T11:11:38;87004.03;;;15.20;45.52
43838;BME280;65998;46.256;7.534;2023-04-28T11:16:51;86999.00;;;15.26;45.51
43838;BME280;65998;46.256;7.534;2023-04-28T11:19:26;87001.78;;;15.26;45.41
43838;BME280;65998;46.256;7.534;2023-04-28T11:21:53;87005.34;;;15.23;45.64
43838;BME280;65998;46.256;7.534;2023-04-28T11:24:20;87001.25;;;15.20;45.44
43838;BME280;65998;46.256;7.534;2023-04-28T11:26:45;87005.38;;;15.21;45.63
43838;BME280;65998;46.256;7.534;2023-04-28T11:29:11;86999.13;;;15.22;45.50
43838;BME280;65998;46.256;7.534;2023-04-28T11:31:37;86992.84;;;15.24;45.54
43838;BME280;65998;46.256;7.534;2023-04-28T11:34:09;86993.41;;;15.28;45.34
43838;BME280;65998;46.256;7.534;2023-04-28T11:36:37;86988.63;;;15.27;45.42
43838;BME280;65998;46.256;7.534;2023-04-28T11:39:11;86987.16;;;15.30;45.30
43838;BME280;65998;46.256;7.534;2023-04-28T11:41:39;86987.88;;;15.28;45.72
43838;BME280;65998;46.256;7.534;2023-04-28T11:44:18;86983.66;;;15.31;45.46
43838;BME280;65998;46.256;7.534;2023-04-28T11:49:13;86981.78;;;15.24;45.56
43838;BME280;65998;46.256;7.534;2023-04-28T11:51:39;86982.41;;;15.26;45.50
43838;BME280;65998;46.256;7.534;2023-04-28T11:54:05;86979.63;;;15.26;45.70
43838;BME280;65998;46.256;7.534;2023-04-28T11:56:36;86972.56;;;15.31;45.45
43838;BME280;65998;46.256;7.534;2023-04-28T11:59:07;86969.81;;;15.31;45.61
43838;BME280;65998;46.256;7.534;2023-04-28T12:01:50;86975.22;;;15.36;45.59
43838;BME280;65998;46.256;7.534;2023-04-28T12:04:29;86973.81;;;15.37;45.66
43838;BME280;65998;46.256;7.534;2023-04-28T12:07:17;86979.38;;;15.37;45.61
43838;BME280;65998;46.256;7.534;2023-04-28T12:09:45;86970.50;;;15.32;45.72
43838;BME280;65998;46.256;7.534;2023-04-28T12:12:13;86971.00;;;15.39;45.33
43838;BME280;65998;46.256;7.534;2023-04-28T12:14:54;86970.16;;;15.44;45.56
43838;BME280;65998;46.256;7.534;2023-04-28T12:19:54;86967.50;;;15.40;45.50
43838;BME280;65998;46.256;7.534;2023-04-28T12:22:20;86964.78;;;15.38;45.84
43838;BME280;65998;46.256;7.534;2023-04-28T12:25:04;86959.75;;;15.45;45.47
43838;BME280;65998;46.256;7.534;2023-04-28T12:27:30;86960.66;;;15.37;45.66
43838;BME280;65998;46.256;7.534;2023-04-28T12:29:56;86963.38;;;15.39;45.61
43838;BME280;65998;46.256;7.534;2023-04-28T12:32:41;86980.44;;;15.48;45.50
43838;BME280;65998;46.256;7.534;2023-04-28T12:35:08;86972.91;;;15.44;45.57
43838;BME280;65998;46.256;7.534;2023-04-28T12:37:35;86975.81;;;15.40;45.69
43838;BME280;65998;46.256;7.534;2023-04-28T12:40:01;86979.25;;;15.41;45.73
43838;BME280;65998;46.256;7.534;2023-04-28T12:42:27;86979.19;;;15.43;45.87
43838;BME280;65998;46.256;7.534;2023-04-28T12:44:53;86978.47;;;15.44;45.66
43838;BME280;65998;46.256;7.534;2023-04-28T12:47:18;86984.69;;;15.45;45.82
43838;BME280;65998;46.256;7.534;2023-04-28T12:49:45;86977.78;;;15.44;45.68
43838;BME280;65998;46.256;7.534;2023-04-28T12:52:10;86984.72;;;15.43;45.81
43838;BME280;65998;46.256;7.534;2023-04-28T12:54:36;86986.72;;;15.46;45.63
43838;BME280;65998;46.256;7.534;2023-04-28T12:57:03;86987.94;;;15.51;45.76
43838;BME280;65998;46.256;7.534;2023-04-28T12:59:30;86993.50;;;15.51;45.74
43838;BME280;65998;46.256;7.534;2023-04-28T13:01:56;86989.44;;;15.48;45.80
43838;BME280;65998;46.256;7.534;2023-04-28T13:04:21;86991.47;;;15.50;45.76
43838;BME280;65998;46.256;7.534;2023-04-28T13:06:47;86989.38;;;15.50;45.83
43838;BME280;65998;46.256;7.534;2023-04-28T13:09:14;86979.59;;;15.53;45.63
43838;BME280;65998;46.256;7.534;2023-04-28T13:11:41;86977.50;;;15.54;45.60
43838;BME280;65998;46.256;7.534;2023-04-28T13:14:07;86978.22;;;15.52;45.92
43838;BME280;65998;46.256;7.534;2023-04-28T13:16:34;86974.00;;;15.55;45.74
43838;BME280;65998;46.256;7.534;2023-04-28T13:19:01;86977.41;;;15.58;45.93
43838;BME280;65998;46.256;7.534;2023-04-28T13:21:27;86973.31;;;15.55;45.82
43838;BME280;65998;46.256;7.534;2023-04-28T13:23:56;86974.59;;;15.60;45.83
43838;BME280;65998;46.256;7.534;2023-04-28T13:26:22;86972.59;;;15.56;45.78
43838;BME280;65998;46.256;7.534;2023-04-28T13:28:50;86964.91;;;15.59;45.77
43838;BME280;65998;46.256;7.534;2023-04-28T13:31:15;86960.81;;;15.56;45.92
43838;BME280;65998;46.256;7.534;2023-04-28T13:33:41;86962.81;;;15.59;46.07